Time;durP1;ratioP1;P1;durP2;ratioP2;P2;SDS_P1;SDS_P2;PMS_P1;PMS_P2;Temp;Humidity;BMP_temperature;BMP_pressure;BME280_temperature;BME280_humidity;BME280_pressure;Samples;Min_cycle;Max_cycle;Signal;HPM_P1;HPM_P2
2022/10/07 00:02:17;;;;;;;8.65;4.68;;;;;;;10.76;62.55;95999.44;5033419;28;20182;-71
2022/10/07 00:04:45;;;;;;;8.25;5.35;;;;;;;10.86;62.00;95994.25;5033488;28;20186;-71
2022/10/07 00:07:11;;;;;;;9.30;5.30;;;;;;;10.73;62.82;96004.97;5036230;28;20181;-72
2022/10/07 00:09:37;;;;;;;6.60;5.28;;;;;;;10.71;63.13;95996.38;5039054;28;20185;-71
2022/10/07 00:12:02;;;;;;;7.63;5.78;;;;;;;10.53;63.50;95996.13;5032166;28;20233;-71
2022/10/07 00:14:28;;;;;;;8.50;5.13;;;;;;;10.59;63.31;96003.50;5042414;28;20198;-70
2022/10/07 00:16:53;;;;;;;7.55;5.13;;;;;;;10.45;64.01;96006.44;5032621;28;20304;-70
2022/10/07 00:19:19;;;;;;;7.22;4.82;;;;;;;10.45;63.58;96006.44;5028386;28;20278;-70
2022/10/07 00:21:45;;;;;;;9.32;5.75;;;;;;;10.32;64.27;95998.72;5040084;28;20208;-70
2022/10/07 00:24:10;;;;;;;6.72;5.53;;;;;;;10.32;64.59;96005.78;5041647;28;20186;-69
2022/10/07 00:26:36;;;;;;;7.47;5.38;;;;;;;10.28;64.85;95994.66;5028639;28;20193;-69
2022/10/07 00:29:04;;;;;;;6.72;5.68;;;;;;;10.43;64.50;95997.03;5024707;28;20213;-71
2022/10/07 00:31:33;;;;;;;8.35;5.95;;;;;;;10.47;64.24;95991.34;5038423;28;20243;-70
2022/10/07 00:33:58;;;;;;;7.47;5.45;;;;;;;10.59;64.07;95992.97;5030857;28;20198;-70
2022/10/07 00:36:26;;;;;;;9.43;6.00;;;;;;;10.44;63.95;95989.00;5022239;28;20207;-69
2022/10/07 00:38:55;;;;;;;10.23;5.57;;;;;;;10.49;64.29;95988.63;5032527;28;20213;-70
2022/10/07 00:41:24;;;;;;;8.45;5.35;;;;;;;10.49;64.38;95989.44;5035360;28;20280;-70
2022/10/07 00:43:50;;;;;;;9.38;5.93;;;;;;;10.53;64.07;95987.38;5032346;28;20226;-70
2022/10/07 00:46:22;;;;;;;14.43;6.45;;;;;;;10.33;64.30;95992.50;5043130;28;20213;-70
2022/10/07 00:48:48;;;;;;;9.18;6.63;;;;;;;10.29;64.60;95983.22;5023417;28;20229;-70
2022/10/07 00:51:17;;;;;;;10.82;6.85;;;;;;;10.18;64.86;95983.22;5016982;28;20194;-70
2022/10/07 00:53:47;;;;;;;9.88;6.78;;;;;;;10.23;65.28;95990.72;5022028;28;20203;-70
2022/10/07 00:56:14;;;;;;;10.18;6.85;;;;;;;10.26;64.56;95977.31;5031678;28;20230;-70
2022/10/07 00:58:41;;;;;;;10.15;6.72;;;;;;;10.19;64.72;95974.38;5034205;28;20194;-71
2022/10/07 01:01:07;;;;;;;9.57;6.40;;;;;;;10.30;64.74;95978.78;5042452;28;20185;-72
2022/10/07 01:03:34;;;;;;;10.48;6.18;;;;;;;10.26;64.74;95985.22;5032426;28;20252;-70
2022/10/07 01:06:02;;;;;;;11.57;7.38;;;;;;;10.01;65.74;95976.72;5037847;28;20186;-70
2022/10/07 01:08:28;;;;;;;11.20;6.80;;;;;;;10.13;65.73;95986.22;5027337;28;20312;-70
2022/10/07 01:10:57;;;;;;;8.85;6.03;;;;;;;10.03;65.72;95973.97;5034819;28;20281;-70
2022/10/07 01:13:33;;;;;;;8.52;6.45;;;;;;;10.22;64.96;95973.28;5028198;28;20265;-69
2022/10/07 01:16:12;;;;;;;11.57;6.32;;;;;;;10.12;64.82;95973.19;5025694;28;20197;-69
2022/10/07 01:18:51;;;;;;;9.48;5.75;;;;;;;10.02;65.79;95975.72;5026181;28;20189;-70
2022/10/07 01:21:42;;;;;;;9.80;5.68;;;;;;;10.05;65.65;95983.41;5028116;28;20183;-70
2022/10/07 01:24:46;;;;;;;7.47;6.50;;;;;;;9.97;65.94;95966.56;5026207;28;20178;-70
2022/10/07 01:27:21;;;;;;;9.15;6.13;;;;;;;10.01;65.59;95975.88;5031163;28;20269;-69
2022/10/07 01:29:54;;;;;;;9.65;6.28;;;;;;;9.82;66.46;95971.28;5034708;28;20211;-70
2022/10/07 01:32:26;;;;;;;8.40;5.70;;;;;;;9.92;66.38;95964.34;5031433;28;20221;-70
2022/10/07 01:34:54;;;;;;;10.27;5.53;;;;;;;9.98;65.74;95969.06;5038279;28;20233;-70
2022/10/07 01:37:24;;;;;;;8.07;5.85;;;;;;;10.00;65.94;95979.47;5038999;28;20193;-70
2022/10/07 01:39:55;;;;;;;8.00;5.45;;;;;;;9.80;66.33;95960.06;5034246;28;20232;-69
2022/10/07 01:42:21;;;;;;;8.18;6.25;;;;;;;9.78;66.41;95954.91;5038096;28;20285;-70
2022/10/07 01:44:53;;;;;;;12.43;6.50;;;;;;;9.78;66.39;95959.34;5041029;28;20190;-70
2022/10/07 01:47:18;;;;;;;8.18;6.20;;;;;;;9.75;66.65;95964.84;5033248;28;20206;-70
2022/10/07 01:49:44;;;;;;;6.20;5.60;;;;;;;9.95;65.76;95964.06;5035990;28;20221;-69
2022/10/07 01:52:27;;;;;;;8.98;5.80;;;;;;;9.85;66.00;95968.41;5036377;28;20191;-70
2022/10/07 01:55:21;;;;;;;6.95;5.70;;;;;;;9.87;65.83;95969.94;5018804;28;20215;-70
2022/10/07 01:58:06;;;;;;;8.02;5.70;;;;;;;9.74;65.89;95957.94;5011643;28;20234;-69
2022/10/07 02:00:40;;;;;;;8.05;6.18;;;;;;;9.69;66.41;95966.16;5012795;28;20193;-69
2022/10/07 02:03:17;;;;;;;8.82;5.50;;;;;;;9.91;65.38;95965.28;5016408;28;20198;-69
2022/10/07 02:05:52;;;;;;;6.93;5.55;;;;;;;9.88;65.56;95968.16;5016195;28;20186;-69
2022/10/07 02:08:39;;;;;;;7.00;5.60;;;;;;;9.65;66.18;95955.09;5014136;28;20247;-69
2022/10/07 02:11:15;;;;;;;8.53;5.20;;;;;;;9.59;66.35;95957.34;5012450;28;20210;-71
2022/10/07 02:14:07;;;;;;;7.73;5.50;;;;;;;9.63;66.23;95966.66;5013836;28;20202;-71
2022/10/07 02:17:10;;;;;;;6.15;5.55;;;;;;;9.59;66.50;95966.06;5014114;28;20226;-72
2022/10/07 02:19:42;;;;;;;12.50;6.53;;;;;;;9.65;66.73;95965.59;5009240;28;20237;-70
2022/10/07 02:22:11;;;;;;;15.65;6.22;;;;;;;9.65;65.74;95962.97;5020700;28;20190;-69
2022/10/07 02:24:39;;;;;;;9.82;6.07;;;;;;;9.45;66.72;95969.78;5015506;28;20178;-69
2022/10/07 02:27:10;;;;;;;10.10;6.45;;;;;;;9.55;66.86;95975.16;4998127;28;20194;-69
2022/10/07 02:29:38;;;;;;;8.88;5.88;;;;;;;9.45;66.94;95974.22;5014099;28;20183;-69
2022/10/07 02:32:08;;;;;;;8.32;5.93;;;;;;;9.49;67.03;95965.97;5000055;28;20186;-69
2022/10/07 02:34:35;;;;;;;8.00;5.68;;;;;;;9.60;66.98;95977.44;5007439;28;20226;-70
2022/10/07 02:37:06;;;;;;;9.15;5.80;;;;;;;9.53;66.90;95971.81;5037404;28;20198;-70
2022/10/07 02:39:32;;;;;;;10.13;5.90;;;;;;;9.48;66.99;95984.47;5032854;28;20183;-71
2022/10/07 02:42:18;;;;;;;6.75;5.43;;;;;;;9.36;67.25;95967.91;5029753;28;20198;-70
2022/10/07 02:44:55;;;;;;;8.47;5.60;;;;;;;9.37;66.89;95977.44;5022298;28;20198;-71
2022/10/07 02:47:23;;;;;;;8.77;5.33;;;;;;;9.28;67.70;95975.56;5023693;28;20201;-70
2022/10/07 02:49:53;;;;;;;6.57;4.93;;;;;;;9.54;66.75;95973.47;5033764;28;20190;-69
2022/10/07 02:52:21;;;;;;;8.17;5.27;;;;;;;9.67;65.81;95973.34;5034561;28;20277;-69
2022/10/07 02:54:54;;;;;;;8.73;5.67;;;;;;;9.43;66.51;95973.50;5037386;28;20197;-70
2022/10/07 02:57:22;;;;;;;11.50;6.30;;;;;;;9.65;66.03;95975.25;5040763;28;20233;-69
2022/10/07 02:59:50;;;;;;;8.95;6.03;;;;;;;9.49;66.12;95976.47;5034053;28;20281;-70
2022/10/07 03:02:25;;;;;;;8.73;5.60;;;;;;;9.16;66.98;95979.13;5032424;28;20282;-69
2022/10/07 03:04:50;;;;;;;9.37;5.80;;;;;;;8.90;67.77;95976.75;5030298;28;20181;-69
2022/10/07 03:07:16;;;;;;;5.93;5.23;;;;;;;8.91;68.46;95969.69;5033901;28;20191;-69
2022/10/07 03:09:42;;;;;;;8.73;5.90;;;;;;;9.14;67.68;95986.25;5032206;28;20182;-70
2022/10/07 03:12:07;;;;;;;9.70;6.20;;;;;;;9.09;67.64;95978.78;5026470;28;20181;-69
2022/10/07 03:14:34;;;;;;;6.57;5.17;;;;;;;9.13;67.69;95979.38;5040595;28;20275;-69
2022/10/07 03:17:00;;;;;;;8.80;6.70;;;;;;;9.08;68.03;95976.25;5034118;28;20282;-71
2022/10/07 03:19:26;;;;;;;8.87;6.00;;;;;;;9.02;68.29;95972.31;5036220;28;20183;-71
2022/10/07 03:21:52;;;;;;;10.17;6.30;;;;;;;9.08;68.20;95973.63;5033304;28;20248;-71
2022/10/07 03:24:18;;;;;;;8.37;6.33;;;;;;;9.14;68.12;95978.41;5022637;28;20252;-71
2022/10/07 03:26:44;;;;;;;11.03;6.53;;;;;;;9.07;68.64;95978.06;5033995;28;20194;-70
2022/10/07 03:29:10;;;;;;;10.40;7.63;;;;;;;9.03;68.59;95968.75;5031723;28;20198;-69
2022/10/07 03:31:35;;;;;;;12.27;8.37;;;;;;;9.21;67.80;95969.94;5033334;28;20309;-69
2022/10/07 03:34:01;;;;;;;8.57;7.63;;;;;;;9.03;68.45;95972.22;5044715;28;20205;-69
2022/10/07 03:36:26;;;;;;;7.67;6.73;;;;;;;8.96;69.08;95963.16;5035750;28;20175;-69
2022/10/07 03:38:54;;;;;;;10.67;7.00;;;;;;;9.04;69.13;95967.81;5030803;28;20236;-70
2022/10/07 03:41:21;;;;;;;10.43;7.20;;;;;;;9.02;68.91;95967.06;5040539;28;20182;-69
2022/10/07 03:43:46;;;;;;;8.87;7.07;;;;;;;8.97;69.17;95963.97;5032549;28;20174;-69
2022/10/07 03:46:12;;;;;;;10.63;7.63;;;;;;;8.87;69.10;95957.75;5011335;28;20344;-69
2022/10/07 03:48:37;;;;;;;9.70;7.30;;;;;;;8.92;69.34;95972.19;5021985;28;20190;-70
2022/10/07 03:51:03;;;;;;;11.20;6.80;;;;;;;9.03;69.32;95973.97;5035219;28;20193;-70
2022/10/07 03:53:28;;;;;;;9.33;7.20;;;;;;;9.05;68.89;95978.16;5028372;28;20195;-70
2022/10/07 03:55:54;;;;;;;8.00;6.93;;;;;;;9.06;68.49;95971.13;5026974;28;20233;-70
2022/10/07 03:58:20;;;;;;;8.47;6.80;;;;;;;9.19;68.75;95963.13;5040295;28;20205;-70
2022/10/07 04:00:46;;;;;;;9.50;6.07;;;;;;;9.14;69.11;95971.38;5035371;28;20210;-70
2022/10/07 04:03:13;;;;;;;7.23;6.23;;;;;;;9.07;69.36;95975.44;5032298;28;20284;-70
2022/10/07 04:05:39;;;;;;;7.00;6.00;;;;;;;9.13;69.65;95976.75;5037649;28;20239;-69
2022/10/07 04:08:04;;;;;;;7.97;6.23;;;;;;;9.27;69.16;95982.59;5033369;28;20187;-70
2022/10/07 04:10:31;;;;;;;8.37;6.60;;;;;;;9.05;69.83;95982.56;5033766;28;20205;-71
2022/10/07 04:12:56;;;;;;;8.00;6.00;;;;;;;9.05;69.70;95972.09;5036767;28;20258;-71
2022/10/07 04:15:21;;;;;;;8.20;6.00;;;;;;;9.03;69.73;95981.84;5033079;28;20214;-69
2022/10/07 04:17:48;;;;;;;8.63;6.63;;;;;;;9.20;69.45;95977.94;5036662;28;20228;-69
2022/10/07 04:20:15;;;;;;;11.87;6.93;;;;;;;9.12;69.67;95970.66;5033969;28;20190;-70
2022/10/07 04:22:41;;;;;;;8.23;6.17;;;;;;;9.15;69.76;95966.97;5032356;28;20263;-71
2022/10/07 04:27:56;;;;;;;8.10;6.60;;;;;;;9.34;69.26;95972.44;5024177;28;20287;-71
2022/10/07 04:30:24;;;;;;;7.80;6.60;;;;;;;9.37;69.20;95971.38;5026567;28;20195;-69
2022/10/07 04:32:50;;;;;;;7.80;6.67;;;;;;;9.44;69.03;95967.31;5034226;28;20197;-70
2022/10/07 04:35:21;;;;;;;9.07;6.87;;;;;;;9.39;69.25;95966.84;5038541;28;20320;-70
2022/10/07 04:37:47;;;;;;;8.70;6.47;;;;;;;9.50;68.84;95972.88;5035735;28;20186;-71
2022/10/07 04:40:13;;;;;;;13.13;6.67;;;;;;;9.22;69.42;95968.13;5032841;28;20198;-70
2022/10/07 04:45:22;;;;;;;10.47;7.03;;;;;;;9.27;68.88;95972.09;5029961;28;20189;-71
2022/10/07 04:47:48;;;;;;;8.30;7.17;;;;;;;8.98;70.68;95970.88;5033749;28;20194;-69
2022/10/07 04:50:13;;;;;;;8.60;7.73;;;;;;;9.21;70.10;95977.81;5033302;28;20197;-69
2022/10/07 04:52:40;;;;;;;8.73;6.83;;;;;;;9.31;69.61;95979.72;5017717;28;20336;-69
2022/10/07 04:55:05;;;;;;;7.33;6.17;;;;;;;9.43;69.75;95971.69;5036524;28;20205;-69
2022/10/07 04:57:31;;;;;;;9.90;6.97;;;;;;;9.50;69.37;95961.56;5037032;28;20286;-69
2022/10/07 04:59:56;;;;;;;9.27;7.27;;;;;;;9.53;68.72;95961.31;5030229;28;20241;-69
2022/10/07 05:02:22;;;;;;;15.93;7.93;;;;;;;9.57;68.71;95967.13;5032363;28;20186;-69
2022/10/07 05:04:47;;;;;;;9.40;6.93;;;;;;;9.54;68.74;95972.63;5023843;28;20178;-69
2022/10/07 05:07:13;;;;;;;9.60;7.13;;;;;;;9.47;68.83;95975.75;5036901;28;20192;-69
2022/10/07 05:09:39;;;;;;;11.47;7.77;;;;;;;9.41;69.11;95975.41;5034558;28;20182;-70
2022/10/07 05:12:05;;;;;;;13.60;6.80;;;;;;;9.33;69.90;95981.28;5031743;28;20194;-70
2022/10/07 05:14:31;;;;;;;16.87;7.77;;;;;;;9.61;69.09;95990.41;5017323;28;20226;-70
2022/10/07 05:16:57;;;;;;;9.47;6.70;;;;;;;9.57;69.48;95991.63;5041532;28;20197;-71
2022/10/07 05:19:22;;;;;;;9.37;7.27;;;;;;;9.70;69.15;96000.22;5041010;28;20197;-69
2022/10/07 05:21:48;;;;;;;12.13;7.13;;;;;;;9.81;69.08;96003.75;5039642;28;20218;-71
2022/10/07 05:24:13;;;;;;;10.53;7.20;;;;;;;9.69;69.44;95998.53;5033560;28;20181;-68
2022/10/07 05:26:39;;;;;;;13.73;8.03;;;;;;;9.84;69.41;96003.53;5029634;28;20194;-68
2022/10/07 05:29:05;;;;;;;11.37;7.13;;;;;;;10.15;68.00;96015.81;5023177;28;20186;-69
2022/10/07 05:31:31;;;;;;;11.03;7.60;;;;;;;9.94;68.71;96009.69;5027568;28;20209;-69
2022/10/07 05:33:57;;;;;;;11.13;7.07;;;;;;;10.19;67.97;96010.34;5033517;28;20218;-67
2022/10/07 05:36:23;;;;;;;11.93;7.10;;;;;;;10.21;67.52;96011.91;5033951;28;20271;-66
2022/10/07 05:38:51;;;;;;;10.63;7.40;;;;;;;10.34;67.51;96022.25;5033766;28;20275;-68
2022/10/07 05:41:18;;;;;;;15.13;7.93;;;;;;;10.19;67.56;96013.81;5035545;28;20186;-69
2022/10/07 05:43:46;;;;;;;8.90;6.68;;;;;;;10.22;67.78;96020.59;5032761;28;20261;-67
2022/10/07 05:46:18;;;;;;;7.67;6.90;;;;;;;10.24;67.96;96021.31;5024653;28;20195;-68
2022/10/07 05:48:45;;;;;;;11.48;7.47;;;;;;;10.31;67.71;96014.63;5031755;28;20186;-68
2022/10/07 05:51:12;;;;;;;16.52;7.13;;;;;;;10.37;67.80;96024.63;5032482;28;20285;-66
2022/10/07 05:53:40;;;;;;;12.70;7.07;;;;;;;10.43;67.21;96013.63;5030436;28;20186;-67
2022/10/07 05:56:07;;;;;;;11.02;7.05;;;;;;;10.53;66.99;96025.06;5022300;28;20250;-71
2022/10/07 05:58:35;;;;;;;15.90;7.27;;;;;;;10.67;66.55;96025.72;5035359;28;20272;-69
2022/10/07 06:01:02;;;;;;;9.07;7.20;;;;;;;10.85;65.90;96018.88;5031819;28;20256;-68
2022/10/07 06:03:28;;;;;;;10.90;7.23;;;;;;;10.81;65.74;96026.22;5034528;28;20233;-68
2022/10/07 06:05:54;;;;;;;12.20;7.23;;;;;;;10.85;65.74;96026.78;5043227;28;20193;-68
2022/10/07 06:08:21;;;;;;;12.65;7.18;;;;;;;10.97;65.38;96019.66;5034309;28;20198;-68
2022/10/07 06:13:32;;;;;;;10.48;6.97;;;;;;;11.02;65.09;96020.94;5025467;28;20285;-68
2022/10/07 06:16:08;;;;;;;14.07;7.20;;;;;;;11.07;65.25;96017.94;5036651;28;20202;-69
2022/10/07 06:18:37;;;;;;;13.05;7.45;;;;;;;11.17;64.42;96013.56;5040807;28;20190;-67
2022/10/07 06:21:03;;;;;;;6.80;5.97;;;;;;;11.32;63.88;96021.91;5033149;28;20201;-68
2022/10/07 06:23:29;;;;;;;13.45;7.60;;;;;;;11.47;64.35;96025.88;5041609;28;20265;-68
2022/10/07 06:26:06;;;;;;;10.73;7.88;;;;;;;11.47;64.95;96023.25;5034276;28;20345;-68
2022/10/07 06:28:35;;;;;;;12.40;7.78;;;;;;;11.55;64.77;96024.41;5033901;28;20304;-66
2022/10/07 06:31:10;;;;;;;10.93;8.07;;;;;;;11.55;64.05;96019.94;5031475;28;20194;-66
2022/10/07 06:33:36;;;;;;;13.75;8.23;;;;;;;11.64;64.31;96020.94;5040745;28;20185;-66
2022/10/07 06:36:09;;;;;;;10.90;7.90;;;;;;;11.78;63.73;96032.91;5030618;28;20210;-66
2022/10/07 06:38:34;;;;;;;10.30;7.85;;;;;;;11.81;63.81;96028.19;5039881;28;20193;-66
2022/10/07 06:41:01;;;;;;;14.48;8.00;;;;;;;11.85;63.67;96034.88;5040219;28;20190;-67
2022/10/07 06:43:28;;;;;;;10.73;7.47;;;;;;;11.99;63.49;96032.84;5036592;28;20190;-66
2022/10/07 06:45:58;;;;;;;12.02;7.68;;;;;;;12.06;63.51;96044.53;5023893;28;20261;-67
2022/10/07 06:48:24;;;;;;;7.80;6.68;;;;;;;12.11;63.59;96034.44;5042038;28;20230;-65
2022/10/07 06:50:52;;;;;;;12.65;8.00;;;;;;;12.14;63.55;96044.69;5034310;28;20260;-66
2022/10/07 06:53:17;;;;;;;14.25;8.35;;;;;;;12.23;63.11;96043.84;5033619;28;20186;-66
2022/10/07 06:55:44;;;;;;;12.68;9.50;;;;;;;12.23;63.73;96037.75;5032515;28;20210;-66
2022/10/07 06:58:10;;;;;;;18.33;9.20;;;;;;;12.20;63.95;96038.88;5019068;28;20203;-66
2022/10/07 07:00:35;;;;;;;14.88;8.98;;;;;;;12.30;63.29;96042.34;5027365;28;20195;-65
2022/10/07 07:03:01;;;;;;;12.13;8.63;;;;;;;12.45;62.52;96053.31;5032996;28;20674;-66
2022/10/07 07:05:39;;;;;;;13.43;10.07;;;;;;;12.46;61.88;96041.81;5029141;28;20207;-65
2022/10/07 07:08:04;;;;;;;11.43;9.00;;;;;;;12.52;61.61;96049.16;5030613;28;20181;-65
2022/10/07 07:10:30;;;;;;;10.98;8.30;;;;;;;12.67;61.14;96040.81;5019088;28;20217;-65
2022/10/07 07:12:56;;;;;;;12.27;8.48;;;;;;;12.67;61.31;96046.97;5031967;28;20186;-65
2022/10/07 07:15:22;;;;;;;13.43;8.45;;;;;;;12.72;61.33;96036.81;5040747;28;20364;-66
2022/10/07 07:17:47;;;;;;;14.90;9.50;;;;;;;12.86;60.79;96043.47;5034510;28;20226;-66
2022/10/07 07:20:14;;;;;;;17.70;9.55;;;;;;;12.96;60.98;96040.78;5033483;28;20268;-66
2022/10/07 07:22:40;;;;;;;13.88;10.63;;;;;;;12.78;60.90;96033.59;5028864;28;20194;-66
2022/10/07 07:25:08;;;;;;;15.57;9.85;;;;;;;12.83;59.93;96035.84;5035893;28;20183;-65
2022/10/07 07:27:34;;;;;;;14.90;9.88;;;;;;;12.87;60.25;96031.09;5034905;28;20189;-67
2022/10/07 07:30:00;;;;;;;13.20;10.02;;;;;;;12.98;60.19;96033.56;5021502;28;20187;-66
2022/10/07 07:32:26;;;;;;;15.77;11.32;;;;;;;13.14;59.27;96033.81;5028757;28;20183;-67
2022/10/07 07:34:54;;;;;;;13.60;10.15;;;;;;;13.12;59.05;96041.03;5035029;28;20205;-67
2022/10/07 07:37:20;;;;;;;15.48;10.85;;;;;;;13.24;59.26;96036.44;5032350;28;20305;-67
2022/10/07 07:39:45;;;;;;;16.73;10.75;;;;;;;13.25;58.25;96025.72;5043673;28;20202;-66
2022/10/07 07:42:11;;;;;;;13.45;8.98;;;;;;;13.34;57.14;96028.50;5017939;28;20225;-67
2022/10/07 07:44:37;;;;;;;13.43;9.18;;;;;;;13.46;56.79;96024.72;5036538;28;20178;-66
2022/10/07 07:47:03;;;;;;;9.00;8.07;;;;;;;13.45;55.48;96021.25;5030674;28;20225;-65
2022/10/07 07:49:31;;;;;;;10.80;8.80;;;;;;;13.53;55.49;96019.72;5033983;28;20186;-65
2022/10/07 07:51:57;;;;;;;13.73;8.60;;;;;;;13.61;55.69;96022.44;5044163;28;20193;-66
2022/10/07 07:54:26;;;;;;;15.90;10.57;;;;;;;13.64;55.40;96017.69;5034114;28;20305;-66
2022/10/07 07:56:53;;;;;;;11.20;9.65;;;;;;;13.63;55.73;96015.19;5033309;28;20222;-67
2022/10/07 07:59:19;;;;;;;12.27;9.68;;;;;;;13.73;55.82;96018.63;5030373;28;20213;-67
2022/10/07 08:01:44;;;;;;;14.20;9.38;;;;;;;13.77;55.42;96005.97;5037752;28;20186;-66
2022/10/07 08:04:12;;;;;;;12.93;9.70;;;;;;;13.84;55.67;96007.03;5037682;28;20182;-66
2022/10/07 08:06:39;;;;;;;12.90;9.77;;;;;;;13.95;55.25;96011.28;5031716;28;20305;-67
2022/10/07 08:09:05;;;;;;;11.70;9.05;;;;;;;14.13;53.63;96010.31;5031725;28;20233;-65
2022/10/07 08:11:31;;;;;;;11.82;9.30;;;;;;;14.14;53.78;96005.88;5032281;28;20194;-66
2022/10/07 08:13:57;;;;;;;11.95;8.45;;;;;;;14.32;53.49;96006.69;5031190;28;20194;-66
2022/10/07 08:16:25;;;;;;;9.13;7.43;;;;;;;14.38;52.98;96007.94;5035033;28;20188;-65
2022/10/07 08:18:51;;;;;;;10.80;6.57;;;;;;;14.45;50.98;95998.41;5028550;28;20209;-66
2022/10/07 08:21:19;;;;;;;9.27;6.35;;;;;;;14.53;51.66;96002.97;5030957;28;20209;-68
2022/10/07 08:23:48;;;;;;;13.02;6.75;;;;;;;14.51;52.09;95999.59;5036319;28;20238;-68
2022/10/07 08:26:13;;;;;;;9.48;6.60;;;;;;;14.59;51.22;95994.41;5016111;28;20221;-67
2022/10/07 08:28:39;;;;;;;11.98;6.95;;;;;;;14.66;51.35;95989.34;5030866;28;20193;-68
2022/10/07 08:31:16;;;;;;;9.75;6.60;;;;;;;14.95;50.52;95987.25;5033300;28;20185;-67
2022/10/07 08:33:43;;;;;;;9.57;6.60;;;;;;;14.97;49.86;95981.81;5045203;28;20193;-67
2022/10/07 08:36:17;;;;;;;9.40;6.38;;;;;;;14.90;50.71;95975.47;5033318;28;20178;-67
2022/10/07 08:38:44;;;;;;;9.88;6.10;;;;;;;14.91;50.71;95977.94;5018218;28;20213;-67
2022/10/07 08:41:18;;;;;;;5.80;4.78;;;;;;;15.02;48.79;95960.97;5039918;28;20222;-66
2022/10/07 08:43:48;;;;;;;4.95;3.67;;;;;;;15.13;47.58;95970.47;5017980;28;20190;-66
2022/10/07 08:46:18;;;;;;;11.10;4.63;;;;;;;15.39;46.82;95976.56;5038136;28;20182;-68
2022/10/07 08:49:14;;;;;;;6.30;3.90;;;;;;;15.53;46.52;95967.22;5030817;28;20213;-67
2022/10/07 08:51:45;;;;;;;6.75;4.15;;;;;;;15.62;46.18;95958.31;5035082;28;20182;-67
2022/10/07 08:54:16;;;;;;;6.68;3.72;;;;;;;15.69;46.50;95960.34;5036374;28;20225;-66
2022/10/07 08:56:42;;;;;;;8.50;4.03;;;;;;;15.78;46.29;95964.69;5038735;28;20237;-67
2022/10/07 08:59:14;;;;;;;7.22;3.55;;;;;;;15.82;45.84;95952.75;5035552;28;20220;-66
2022/10/07 09:01:54;;;;;;;5.60;3.47;;;;;;;16.01;45.31;95959.59;5031727;28;20205;-66
2022/10/07 09:04:44;;;;;;;7.15;3.13;;;;;;;16.12;44.99;95951.34;5029426;28;20187;-66
2022/10/07 09:07:34;;;;;;;8.60;3.58;;;;;;;16.25;44.76;95951.72;5035772;28;20270;-67
2022/10/07 09:10:19;;;;;;;5.20;3.15;;;;;;;16.42;44.34;95952.53;5035775;28;20189;-67
2022/10/07 09:12:53;;;;;;;5.70;3.28;;;;;;;16.53;43.92;95948.72;5029517;28;20193;-65
2022/10/07 09:15:27;;;;;;;5.43;3.28;;;;;;;16.60;42.95;95940.91;5027094;28;20205;-64
2022/10/07 09:17:58;;;;;;;4.88;2.80;;;;;;;16.67;42.77;95926.81;5025344;28;20182;-66
2022/10/07 09:20:36;;;;;;;6.45;3.58;;;;;;;16.84;42.39;95933.00;5012246;28;20277;-65
2022/10/07 09:23:05;;;;;;;6.03;3.00;;;;;;;16.72;42.56;95927.13;5023869;28;20557;-68
2022/10/07 09:25:31;;;;;;;7.38;3.33;;;;;;;16.93;42.52;95910.72;5016562;28;20182;-65
2022/10/07 09:27:57;;;;;;;6.53;3.42;;;;;;;17.11;42.94;95926.47;5030583;28;20244;-66
2022/10/07 09:30:26;;;;;;;4.70;3.10;;;;;;;17.19;41.57;95918.47;5031160;28;20197;-66
2022/10/07 09:32:54;;;;;;;6.95;3.53;;;;;;;17.26;41.54;95923.91;5024854;28;20212;-63
2022/10/07 09:35:22;;;;;;;8.50;2.90;;;;;;;17.46;40.58;95926.19;5036761;28;20409;-64
2022/10/07 09:38:08;;;;;;;4.72;3.35;;;;;;;17.53;41.23;95914.66;5029584;28;20256;-65
2022/10/07 09:43:33;;;;;;;6.18;2.90;;;;;;;17.56;40.55;95924.13;5026870;28;20423;-65
2022/10/07 09:46:00;;;;;;;4.40;2.70;;;;;;;17.71;40.76;95913.59;5033573;28;20186;-65
2022/10/07 09:48:33;;;;;;;5.20;3.58;;;;;;;17.94;39.94;95921.66;5030597;28;20186;-65
2022/10/07 09:51:23;;;;;;;6.78;2.92;;;;;;;18.02;40.19;95914.47;5030361;28;20675;-65
2022/10/07 09:54:01;;;;;;;5.95;3.00;;;;;;;17.92;39.25;95918.34;5019891;28;20657;-65
2022/10/07 09:56:45;;;;;;;4.00;2.92;;;;;;;17.96;38.83;95906.34;5024251;28;20373;-63
2022/10/07 09:59:24;;;;;;;4.10;2.88;;;;;;;18.03;38.93;95904.63;5034313;28;20186;-63
2022/10/07 10:01:54;;;;;;;4.55;3.03;;;;;;;18.30;38.88;95906.75;5020886;28;20252;-64
2022/10/07 10:04:28;;;;;;;3.13;2.83;;;;;;;18.28;38.49;95892.81;5036083;28;20174;-64
2022/10/07 10:06:59;;;;;;;7.10;3.22;;;;;;;18.40;39.20;95879.91;5031544;28;20185;-64
2022/10/07 10:09:25;;;;;;;4.47;2.58;;;;;;;18.39;38.20;95880.94;5031918;28;20282;-64
2022/10/07 10:12:08;;;;;;;3.60;2.88;;;;;;;18.41;38.00;95880.72;5009964;28;20278;-64
2022/10/07 10:14:49;;;;;;;8.13;2.80;;;;;;;18.79;37.58;95873.59;5038787;28;20294;-66
2022/10/07 10:17:23;;;;;;;3.92;2.60;;;;;;;18.91;36.93;95868.66;5033295;28;20205;-65
2022/10/07 10:19:48;;;;;;;4.15;2.70;;;;;;;18.36;37.07;95875.94;5033468;28;20186;-65
2022/10/07 10:22:26;;;;;;;3.78;2.65;;;;;;;18.63;36.45;95861.25;5038072;28;20195;-66
2022/10/07 10:28:02;;;;;;;3.13;2.55;;;;;;;18.78;35.67;95866.59;5033172;28;20253;-66
2022/10/07 10:30:29;;;;;;;4.75;2.50;;;;;;;18.86;35.29;95863.03;5034050;28;20194;-65
2022/10/07 10:33:09;;;;;;;4.97;2.67;;;;;;;18.85;35.38;95850.72;5032406;28;20198;-64
2022/10/07 10:36:06;;;;;;;3.25;2.40;;;;;;;19.04;35.05;95865.34;5031039;28;20276;-64
2022/10/07 10:38:49;;;;;;;3.40;2.63;;;;;;;19.38;35.45;95852.28;5028760;28;20190;-66
2022/10/07 10:41:28;;;;;;;4.40;2.70;;;;;;;19.69;34.80;95843.22;5007616;28;20325;-65
2022/10/07 10:43:59;;;;;;;2.47;2.20;;;;;;;19.82;33.67;95842.53;5037972;28;20193;-64
2022/10/07 10:46:43;;;;;;;4.05;2.38;;;;;;;19.79;34.21;95842.94;5023071;28;20196;-64
2022/10/07 10:49:24;;;;;;;3.30;2.30;;;;;;;19.91;34.72;95841.38;5028136;28;20195;-64
2022/10/07 10:52:11;;;;;;;4.28;2.20;;;;;;;20.25;34.52;95837.22;5018218;28;20193;-64
2022/10/07 10:55:02;;;;;;;4.53;2.53;;;;;;;20.40;33.22;95835.28;5034219;28;20202;-64
2022/10/07 10:57:33;;;;;;;3.80;2.45;;;;;;;20.43;33.88;95829.56;5007992;28;20321;-64
2022/10/07 11:00:13;;;;;;;4.68;2.83;;;;;;;20.62;33.63;95825.41;5001083;28;20218;-64
2022/10/07 11:02:41;;;;;;;4.63;2.15;;;;;;;20.71;32.90;95823.41;4998437;28;20289;-64
2022/10/07 11:05:22;;;;;;;2.42;2.17;;;;;;;20.00;34.04;95813.56;4995739;28;20237;-64
2022/10/07 11:08:06;;;;;;;2.65;1.88;;;;;;;19.86;33.63;95809.13;5001788;28;20199;-65
2022/10/07 11:10:54;;;;;;;3.08;2.50;;;;;;;20.10;33.29;95807.94;4997736;28;20184;-65
2022/10/07 11:13:29;;;;;;;5.68;2.40;;;;;;;20.54;33.20;95806.03;4994921;28;20226;-65
2022/10/07 11:16:17;;;;;;;2.88;2.00;;;;;;;20.69;32.35;95807.59;4990198;28;20315;-65
2022/10/07 11:18:45;;;;;;;3.95;2.50;;;;;;;20.64;33.55;95799.34;4999363;28;20203;-65
2022/10/07 11:21:17;;;;;;;3.88;2.08;;;;;;;20.94;32.54;95796.44;4990651;28;20249;-65
2022/10/07 11:24:01;;;;;;;3.83;2.00;;;;;;;21.18;31.26;95794.28;4996499;28;20294;-64
2022/10/07 11:26:30;;;;;;;2.80;1.95;;;;;;;21.15;32.53;95804.34;4996176;28;20195;-66
2022/10/07 11:28:57;;;;;;;2.80;1.80;;;;;;;21.08;30.87;95792.78;4990296;28;20198;-65
2022/10/07 11:31:36;;;;;;;2.90;1.80;;;;;;;20.86;32.15;95793.91;5001343;28;20191;-65
2022/10/07 11:34:39;;;;;;;4.30;1.92;;;;;;;21.68;30.57;95795.75;4982662;28;20223;-64
2022/10/07 11:37:16;;;;;;;2.85;1.80;;;;;;;21.74;30.59;95778.06;4977718;28;20196;-65
2022/10/07 11:39:41;;;;;;;2.58;2.00;;;;;;;21.74;29.92;95789.56;4993193;28;20194;-65
2022/10/07 11:42:21;;;;;;;2.83;2.00;;;;;;;21.86;30.27;95775.59;4981986;28;20192;-65
2022/10/07 11:45:07;;;;;;;3.33;2.00;;;;;;;22.27;29.80;95770.09;4986862;28;20195;-65
2022/10/07 11:47:40;;;;;;;3.80;2.25;;;;;;;22.39;29.22;95771.13;4994230;28;20191;-66
2022/10/07 11:50:14;;;;;;;2.50;2.05;;;;;;;22.59;29.01;95773.78;4994220;28;20184;-65
2022/10/07 11:52:45;;;;;;;2.10;1.88;;;;;;;22.78;28.88;95771.28;4987178;28;20279;-66
2022/10/07 11:55:19;;;;;;;2.08;1.70;;;;;;;21.99;28.61;95771.06;4991138;28;20761;-66
2022/10/07 11:57:52;;;;;;;2.90;2.00;;;;;;;21.70;29.21;95766.91;5020765;28;20253;-67
2022/10/07 12:00:26;;;;;;;4.32;2.00;;;;;;;22.48;29.06;95768.22;5033899;28;20182;-66
2022/10/07 12:02:54;;;;;;;2.67;1.52;;;;;;;23.05;27.70;95764.03;5025711;28;20178;-66
2022/10/07 12:05:35;;;;;;;2.60;1.65;;;;;;;22.98;27.43;95752.47;5033624;28;20182;-65